Time;durP1;ratioP1;P1;durP2;ratioP2;P2;SDS_P1;SDS_P2;PMS_P1;PMS_P2;Temp;Humidity;BMP_temperature;BMP_pressure;BME280_temperature;BME280_humidity;BME280_pressure;Samples;Min_cycle;Max_cycle;Signal;HPM_P1;HPM_P2
2023/09/30 00:00:42;;;;;;;7.60;7.00;;;18.60;29.40;;;;;;5006810;28;20174;-81
2023/09/30 00:03:10;;;;;;;7.63;6.93;;;18.60;29.40;;;;;;5004470;28;20417;-82
2023/09/30 00:05:37;;;;;;;8.47;7.67;;;18.60;29.30;;;;;;4985887;28;20467;-81
2023/09/30 00:08:03;;;;;;;7.80;7.30;;;18.60;29.50;;;;;;4984786;28;20979;-80
2023/09/30 00:10:30;;;;;;;7.60;6.97;;;18.60;29.60;;;;;;4985089;28;20463;-81
2023/09/30 00:12:56;;;;;;;7.30;6.70;;;18.70;29.50;;;;;;5003385;28;20448;-81
2023/09/30 00:15:21;;;;;;;7.10;6.60;;;18.90;29.20;;;;;;5006832;28;20433;-79
2023/09/30 00:17:47;;;;;;;7.53;6.97;;;18.80;29.20;;;;;;4982963;28;20425;-79
2023/09/30 00:20:14;;;;;;;7.77;7.07;;;18.70;29.10;;;;;;4997209;28;20185;-81
2023/09/30 00:22:40;;;;;;;8.53;7.87;;;18.80;29.10;;;;;;4974685;28;20202;-80
2023/09/30 00:25:06;;;;;;;7.17;6.50;;;18.90;29.20;;;;;;4977852;28;21007;-81
2023/09/30 00:27:32;;;;;;;7.20;6.70;;;18.90;29.20;;;;;;4995624;28;20413;-80
2023/09/30 00:29:58;;;;;;;6.83;6.33;;;19.00;29.10;;;;;;4978281;28;20418;-80
2023/09/30 00:32:26;;;;;;;7.47;6.87;;;19.10;29.00;;;;;;4995153;28;20217;-81
2023/09/30 00:34:53;;;;;;;7.90;7.40;;;19.10;29.10;;;;;;4968220;28;20239;-80
2023/09/30 00:37:22;;;;;;;7.00;6.60;;;19.20;28.90;;;;;;4996783;28;20427;-81
2023/09/30 00:39:47;;;;;;;8.20;7.50;;;19.20;28.90;;;;;;4977306;28;20441;-80
2023/09/30 00:42:13;;;;;;;7.60;6.93;;;19.20;28.80;;;;;;4992829;28;20444;-81
2023/09/30 00:44:38;;;;;;;7.77;7.27;;;19.20;28.70;;;;;;4978310;28;20197;-80
2023/09/30 00:47:05;;;;;;;7.37;6.83;;;19.20;28.70;;;;;;4994141;28;20185;-79
2023/09/30 00:49:32;;;;;;;7.77;7.30;;;19.30;28.60;;;;;;4994353;28;20182;-80
2023/09/30 00:51:58;;;;;;;7.03;6.40;;;19.30;28.80;;;;;;4994314;28;20795;-79
2023/09/30 00:54:25;;;;;;;8.10;7.50;;;19.20;29.30;;;;;;4977268;28;20512;-82
2023/09/30 00:56:55;;;;;;;6.67;6.27;;;19.30;29.50;;;;;;4978750;28;20178;-81
2023/09/30 00:59:22;;;;;;;7.13;6.63;;;19.30;29.50;;;;;;4996629;28;20405;-81
2023/09/30 01:01:48;;;;;;;7.17;6.57;;;19.20;29.40;;;;;;4997188;28;20466;-81
2023/09/30 01:04:15;;;;;;;7.17;6.60;;;19.20;29.60;;;;;;4981168;28;20445;-81
2023/09/30 01:06:41;;;;;;;6.67;6.20;;;19.10;30.00;;;;;;4979511;28;20475;-81
2023/09/30 01:09:09;;;;;;;7.73;6.67;;;19.20;30.10;;;;;;4996848;28;20945;-80
2023/09/30 01:11:35;;;;;;;6.70;6.30;;;19.10;30.20;;;;;;4984683;28;20453;-80
2023/09/30 01:14:01;;;;;;;6.20;5.80;;;19.10;30.30;;;;;;4996609;28;20417;-81
2023/09/30 01:16:26;;;;;;;6.90;6.40;;;19.10;30.40;;;;;;4983339;28;20178;-81
2023/09/30 01:18:52;;;;;;;6.90;6.50;;;19.00;30.00;;;;;;4979670;28;20170;-81
2023/09/30 01:21:19;;;;;;;6.13;5.83;;;19.00;30.00;;;;;;4978860;28;20211;-81
2023/09/30 01:23:46;;;;;;;6.60;6.30;;;19.00;30.20;;;;;;4980122;28;20492;-80
2023/09/30 01:26:13;;;;;;;7.83;7.33;;;18.90;30.50;;;;;;4996924;28;20461;-80
2023/09/30 01:28:42;;;;;;;7.30;6.80;;;18.80;30.20;;;;;;4980156;28;20783;-81
2023/09/30 01:31:08;;;;;;;6.80;6.37;;;18.80;30.40;;;;;;4979457;28;20441;-81
2023/09/30 01:33:33;;;;;;;7.13;6.73;;;18.80;30.30;;;;;;4979879;28;20449;-81
2023/09/30 01:35:59;;;;;;;7.63;7.13;;;18.70;30.60;;;;;;4981098;28;20245;-80
2023/09/30 01:38:25;;;;;;;7.07;6.67;;;18.70;30.90;;;;;;4980810;28;20669;-80
2023/09/30 01:40:51;;;;;;;6.90;6.50;;;18.70;30.80;;;;;;5002241;28;20505;-79
2023/09/30 01:43:17;;;;;;;7.50;7.03;;;18.60;31.70;;;;;;4987697;28;20433;-80
2023/09/30 01:45:43;;;;;;;7.70;7.30;;;18.50;32.20;;;;;;4988226;28;20599;-78
2023/09/30 01:48:11;;;;;;;7.23;6.83;;;18.50;32.40;;;;;;5005236;28;20423;-78
2023/09/30 01:50:38;;;;;;;7.07;6.57;;;18.50;32.70;;;;;;4987121;28;20437;-78
2023/09/30 01:53:06;;;;;;;7.00;6.60;;;18.40;33.00;;;;;;5003745;28;20453;-80
2023/09/30 01:55:36;;;;;;;7.77;7.10;;;18.30;33.60;;;;;;4980223;28;20428;-80
2023/09/30 01:58:02;;;;;;;7.20;6.80;;;18.20;34.50;;;;;;4977266;28;20421;-80
2023/09/30 02:00:28;;;;;;;7.40;6.80;;;18.20;35.20;;;;;;4994246;28;20425;-80
2023/09/30 02:02:55;;;;;;;7.37;6.80;;;18.10;35.80;;;;;;4994911;28;20429;-80
2023/09/30 02:05:21;;;;;;;6.20;5.83;;;18.20;35.30;;;;;;4977767;28;20994;-81
2023/09/30 02:07:47;;;;;;;7.00;6.30;;;18.30;35.40;;;;;;4997395;28;20481;-80
2023/09/30 02:10:12;;;;;;;6.90;6.50;;;18.20;35.50;;;;;;4998903;28;20498;-79
2023/09/30 02:12:38;;;;;;;6.90;6.40;;;18.20;35.30;;;;;;5011519;28;20210;-78
2023/09/30 02:15:04;;;;;;;7.40;6.90;;;18.20;35.00;;;;;;4986320;28;20642;-82
2023/09/30 02:17:29;;;;;;;7.10;6.70;;;18.20;35.00;;;;;;4987632;28;20186;-80
2023/09/30 02:19:55;;;;;;;7.93;7.40;;;18.40;34.30;;;;;;5009481;28;20960;-80
2023/09/30 02:22:20;;;;;;;7.00;6.60;;;18.50;33.80;;;;;;4992997;28;20209;-80
2023/09/30 02:24:48;;;;;;;6.87;6.40;;;18.50;33.50;;;;;;4986990;28;20198;-81
2023/09/30 02:27:14;;;;;;;7.23;6.63;;;18.60;33.00;;;;;;4985230;28;20181;-82
2023/09/30 02:29:39;;;;;;;6.70;6.20;;;18.70;32.80;;;;;;5001609;28;20476;-79
2023/09/30 02:32:05;;;;;;;7.40;6.90;;;18.70;32.70;;;;;;4982790;28;20578;-80
2023/09/30 02:34:31;;;;;;;6.77;6.37;;;18.60;33.00;;;;;;4995647;28;20577;-82
2023/09/30 02:36:56;;;;;;;8.43;7.83;;;18.60;32.90;;;;;;4991542;28;20178;-81
2023/09/30 02:39:23;;;;;;;7.60;7.10;;;18.50;32.80;;;;;;5008221;28;20468;-81
2023/09/30 02:41:50;;;;;;;8.27;7.57;;;18.40;33.50;;;;;;4988220;28;20451;-82
2023/09/30 02:44:15;;;;;;;7.87;7.10;;;18.20;34.00;;;;;;5002827;28;20224;-82
2023/09/30 02:46:41;;;;;;;8.20;7.50;;;18.20;34.40;;;;;;5001813;28;20504;-79
2023/09/30 02:49:08;;;;;;;8.27;7.77;;;18.30;34.00;;;;;;4983530;28;20293;-81
2023/09/30 02:51:33;;;;;;;8.40;7.70;;;18.30;33.80;;;;;;4983729;28;20198;-80
2023/09/30 02:53:59;;;;;;;7.70;7.20;;;18.20;34.10;;;;;;4983552;28;20453;-81
2023/09/30 02:56:26;;;;;;;7.40;6.87;;;18.20;33.70;;;;;;4983196;28;20209;-81
2023/09/30 02:58:52;;;;;;;7.50;7.10;;;18.10;33.70;;;;;;4983831;28;20182;-79
2023/09/30 03:01:17;;;;;;;9.07;8.47;;;18.20;33.50;;;;;;4982822;28;20808;-79
2023/09/30 03:03:46;;;;;;;7.83;7.37;;;18.30;33.20;;;;;;4999982;28;20960;-81
2023/09/30 03:06:12;;;;;;;7.93;7.53;;;18.40;32.70;;;;;;5007267;28;20209;-81
2023/09/30 03:08:38;;;;;;;8.07;7.43;;;18.50;32.30;;;;;;4989935;28;20566;-80
2023/09/30 03:11:04;;;;;;;7.60;7.10;;;18.30;32.40;;;;;;5004981;28;20627;-80
2023/09/30 03:13:30;;;;;;;8.77;7.97;;;18.10;32.70;;;;;;4982588;28;20325;-79
2023/09/30 03:15:56;;;;;;;7.63;7.03;;;18.00;33.10;;;;;;4983352;28;20492;-80
2023/09/30 03:18:26;;;;;;;7.87;7.20;;;17.80;33.70;;;;;;5000951;28;20803;-82
2023/09/30 03:21:00;;;;;;;8.67;8.10;;;17.80;34.20;;;;;;5000973;28;20429;-82
2023/09/30 03:23:30;;;;;;;8.33;7.57;;;17.80;34.10;;;;;;4983689;28;20421;-81
2023/09/30 03:25:57;;;;;;;8.43;7.80;;;17.80;34.20;;;;;;4983168;28;20465;-81
2023/09/30 03:28:23;;;;;;;7.27;6.77;;;17.80;34.30;;;;;;4984562;28;20424;-81
2023/09/30 03:30:48;;;;;;;8.20;7.60;;;17.70;34.50;;;;;;4984025;28;20437;-81
2023/09/30 03:33:14;;;;;;;8.20;7.53;;;17.80;34.80;;;;;;4984154;28;20661;-80
2023/09/30 03:35:40;;;;;;;8.17;7.50;;;17.60;34.50;;;;;;5001542;28;20182;-82
2023/09/30 03:38:06;;;;;;;7.73;7.10;;;17.60;34.30;;;;;;5000988;28;20186;-82
2023/09/30 03:40:33;;;;;;;7.30;6.90;;;17.60;34.50;;;;;;5001476;28;20585;-81
2023/09/30 03:42:59;;;;;;;7.53;7.10;;;17.70;34.20;;;;;;4983333;28;20453;-82
2023/09/30 03:45:25;;;;;;;8.30;7.70;;;17.80;34.00;;;;;;4985749;28;20464;-80
2023/09/30 03:47:51;;;;;;;7.60;7.00;;;17.90;33.40;;;;;;5005959;28;20178;-79
2023/09/30 03:50:17;;;;;;;7.93;7.43;;;18.00;32.50;;;;;;5001276;28;20228;-81
2023/09/30 03:52:44;;;;;;;7.63;7.13;;;18.10;32.50;;;;;;5004348;28;20437;-79
2023/09/30 03:55:15;;;;;;;7.50;6.97;;;18.20;31.60;;;;;;4991899;28;20204;-82
2023/09/30 03:57:41;;;;;;;7.23;6.73;;;18.10;31.70;;;;;;5001514;28;20417;-80
2023/09/30 04:00:11;;;;;;;6.63;6.23;;;18.10;32.00;;;;;;4999927;28;20443;-79
2023/09/30 04:02:37;;;;;;;7.63;7.03;;;18.20;31.70;;;;;;4979645;28;20209;-82
2023/09/30 04:05:05;;;;;;;8.13;7.53;;;18.20;31.40;;;;;;4981383;28;20552;-80
2023/09/30 04:07:32;;;;;;;7.97;7.47;;;18.30;31.10;;;;;;4982193;28;20185;-80
2023/09/30 04:10:01;;;;;;;7.80;7.20;;;18.40;30.90;;;;;;4979911;28;20414;-81
2023/09/30 04:12:26;;;;;;;8.30;7.80;;;18.40;30.70;;;;;;4975173;28;20449;-82
2023/09/30 04:14:52;;;;;;;8.47;7.97;;;18.40;30.70;;;;;;4982274;28;20432;-81
2023/09/30 04:17:18;;;;;;;7.70;7.30;;;18.30;30.70;;;;;;4982222;28;20181;-81
2023/09/30 04:19:44;;;;;;;7.67;7.27;;;18.30;31.00;;;;;;4982408;28;20433;-81
2023/09/30 04:22:09;;;;;;;8.30;7.70;;;18.30;31.10;;;;;;4999755;28;20190;-81
2023/09/30 04:24:35;;;;;;;7.33;6.83;;;18.30;31.10;;;;;;5005968;28;20205;-79
2023/09/30 04:27:04;;;;;;;8.23;7.73;;;18.30;31.10;;;;;;4991582;28;20635;-81
2023/09/30 04:29:29;;;;;;;8.03;7.53;;;18.30;31.20;;;;;;4984083;28;20194;-82
2023/09/30 04:31:56;;;;;;;7.77;7.13;;;18.30;31.30;;;;;;5000257;28;20806;-82
2023/09/30 04:34:22;;;;;;;8.30;7.80;;;18.30;31.10;;;;;;4978896;28;20584;-82
2023/09/30 04:36:47;;;;;;;9.63;9.03;;;18.20;31.50;;;;;;4997878;28;20413;-81
2023/09/30 04:39:14;;;;;;;8.90;8.20;;;18.20;31.90;;;;;;4997426;28;20638;-82
2023/09/30 04:41:41;;;;;;;7.60;7.10;;;18.20;32.10;;;;;;5000969;28;20198;-82
2023/09/30 04:44:09;;;;;;;7.83;7.43;;;18.30;31.80;;;;;;4991602;28;20423;-82
2023/09/30 04:46:34;;;;;;;8.13;7.53;;;18.30;31.60;;;;;;5016452;28;20429;-82
2023/09/30 04:49:01;;;;;;;7.53;7.03;;;18.30;31.40;;;;;;5007197;28;20908;-78
2023/09/30 04:51:27;;;;;;;7.80;7.30;;;18.40;31.40;;;;;;5008419;28;20194;-81
2023/09/30 04:53:54;;;;;;;7.40;6.90;;;18.30;31.50;;;;;;5001319;28;20414;-81
2023/09/30 04:56:20;;;;;;;7.43;6.97;;;18.30;31.60;;;;;;4983776;28;20813;-81
2023/09/30 04:58:46;;;;;;;7.30;6.90;;;18.30;31.70;;;;;;5001544;28;20416;-81
2023/09/30 05:01:12;;;;;;;7.97;7.47;;;18.30;31.60;;;;;;4984091;28;20204;-81
2023/09/30 05:03:38;;;;;;;7.60;7.00;;;18.30;31.60;;;;;;4987256;28;20509;-79
2023/09/30 05:06:04;;;;;;;7.60;7.07;;;18.30;31.50;;;;;;5008008;28;20666;-79
2023/09/30 05:08:30;;;;;;;7.47;7.07;;;18.30;31.40;;;;;;4991392;28;20178;-81
2023/09/30 05:10:57;;;;;;;8.40;7.80;;;18.40;31.40;;;;;;5007420;28;20233;-81
2023/09/30 05:13:25;;;;;;;8.07;7.67;;;18.40;31.40;;;;;;4992094;28;20420;-77
2023/09/30 05:15:52;;;;;;;7.97;7.30;;;18.40;31.30;;;;;;4997891;28;20809;-78
2023/09/30 05:18:18;;;;;;;7.37;6.93;;;18.40;31.40;;;;;;4991453;28;20425;-81
2023/09/30 05:20:44;;;;;;;6.87;6.40;;;18.40;31.30;;;;;;5001886;28;20413;-80
2023/09/30 05:23:12;;;;;;;6.33;6.03;;;18.40;31.50;;;;;;4983547;28;20212;-82
2023/09/30 05:25:39;;;;;;;6.80;6.50;;;18.40;31.20;;;;;;4983766;28;20494;-82
2023/09/30 05:28:06;;;;;;;7.20;6.70;;;18.40;31.50;;;;;;4981491;28;20532;-82
2023/09/30 05:30:33;;;;;;;7.43;6.93;;;18.30;31.40;;;;;;4976455;28;20450;-82
2023/09/30 05:33:00;;;;;;;7.57;7.00;;;18.30;31.70;;;;;;5001624;28;20412;-81
2023/09/30 05:35:25;;;;;;;8.40;7.70;;;18.30;32.20;;;;;;4992258;28;20416;-77
2023/09/30 05:37:54;;;;;;;7.70;7.30;;;18.30;31.70;;;;;;5008022;28;20425;-79
2023/09/30 05:40:26;;;;;;;7.90;7.30;;;18.30;31.90;;;;;;4985614;28;20186;-82
2023/09/30 05:42:59;;;;;;;7.37;6.80;;;18.30;32.00;;;;;;4987171;28;20520;-81
2023/09/30 05:45:26;;;;;;;7.60;7.10;;;18.20;31.90;;;;;;5011410;28;20475;-80
2023/09/30 05:47:52;;;;;;;7.90;7.40;;;18.30;31.80;;;;;;5013224;28;20428;-80
2023/09/30 05:50:23;;;;;;;7.97;7.57;;;18.30;31.40;;;;;;4987048;28;20433;-81
2023/09/30 05:52:50;;;;;;;8.20;7.53;;;18.30;31.80;;;;;;5005775;28;20452;-77
2023/09/30 05:55:19;;;;;;;8.27;7.67;;;18.30;31.50;;;;;;5013610;28;20419;-78
2023/09/30 05:57:45;;;;;;;7.57;7.07;;;17.90;32.60;;;;;;5003090;28;20479;-79
2023/09/30 06:00:14;;;;;;;8.53;8.13;;;17.70;33.70;;;;;;5001278;28;20496;-79
2023/09/30 06:02:40;;;;;;;7.90;7.30;;;17.60;34.20;;;;;;5015269;28;20190;-82
2023/09/30 06:05:06;;;;;;;8.90;8.30;;;17.50;34.50;;;;;;5006478;28;20547;-82
2023/09/30 06:07:33;;;;;;;9.17;8.60;;;17.70;34.20;;;;;;4993289;28;20212;-82
2023/09/30 06:10:02;;;;;;;9.20;8.70;;;17.70;33.70;;;;;;4992059;28;20438;-82
2023/09/30 06:12:28;;;;;;;8.47;7.87;;;17.70;33.40;;;;;;5003227;28;20456;-82
2023/09/30 06:14:54;;;;;;;9.00;8.33;;;17.80;34.00;;;;;;4988970;28;20448;-82
2023/09/30 06:17:22;;;;;;;10.80;8.30;;;17.70;33.70;;;;;;5003952;28;20648;-80
2023/09/30 06:19:50;;;;;;;9.00;8.40;;;17.80;33.20;;;;;;5002193;28;20268;-82
2023/09/30 06:22:16;;;;;;;8.23;7.63;;;17.90;33.00;;;;;;4981502;28;20450;-80
2023/09/30 06:24:41;;;;;;;8.50;7.90;;;18.00;32.60;;;;;;5003157;28;20456;-81
2023/09/30 06:27:07;;;;;;;8.80;8.20;;;18.00;32.50;;;;;;5006418;28;20178;-82
2023/09/30 06:29:33;;;;;;;8.20;7.60;;;18.00;32.20;;;;;;5002176;28;20445;-80
2023/09/30 06:31:59;;;;;;;9.93;8.93;;;18.00;32.00;;;;;;4989101;28;20208;-79
2023/09/30 06:34:25;;;;;;;8.43;7.83;;;18.10;32.10;;;;;;5016303;28;20423;-81
2023/09/30 06:36:53;;;;;;;8.50;7.80;;;18.10;32.00;;;;;;4981723;28;20187;-80
2023/09/30 06:39:19;;;;;;;9.37;8.57;;;18.10;31.50;;;;;;4994460;28;20421;-81
2023/09/30 06:41:46;;;;;;;8.70;8.07;;;18.20;31.70;;;;;;4992507;28;20469;-81
2023/09/30 06:44:12;;;;;;;8.40;7.70;;;18.20;31.50;;;;;;4999529;28;20448;-80
2023/09/30 06:46:39;;;;;;;8.80;8.10;;;18.20;31.60;;;;;;4980584;28;20433;-79
2023/09/30 06:49:04;;;;;;;8.40;7.90;;;18.20;31.50;;;;;;4996722;28;20428;-80
2023/09/30 06:51:30;;;;;;;9.13;8.53;;;18.20;31.10;;;;;;4979677;28;20457;-80
2023/09/30 06:53:56;;;;;;;8.37;7.67;;;18.30;31.20;;;;;;4997723;28;20261;-80
2023/09/30 06:56:21;;;;;;;8.20;7.70;;;18.30;31.10;;;;;;4998727;28;21094;-79
2023/09/30 06:58:47;;;;;;;9.27;8.57;;;18.30;31.00;;;;;;4985139;28;20226;-79
2023/09/30 07:01:17;;;;;;;8.53;8.03;;;18.30;30.60;;;;;;4977462;28;20282;-80
2023/09/30 07:03:42;;;;;;;8.73;8.20;;;18.30;30.80;;;;;;4997399;28;20205;-79
2023/09/30 07:06:08;;;;;;;9.50;8.60;;;18.30;30.60;;;;;;4996890;28;20465;-77
2023/09/30 07:08:34;;;;;;;9.90;9.10;;;18.30;30.50;;;;;;4978516;28;20210;-79
2023/09/30 07:11:00;;;;;;;9.17;8.47;;;18.00;31.50;;;;;;4997473;28;20698;-79
2023/09/30 07:13:25;;;;;;;9.50;8.80;;;18.00;32.10;;;;;;4978824;28;20206;-80
2023/09/30 07:15:51;;;;;;;10.03;9.10;;;17.90;32.00;;;;;;4997057;28;20841;-79
2023/09/30 07:18:18;;;;;;;9.30;8.60;;;17.80;32.70;;;;;;4997793;28;20182;-81
2023/09/30 07:20:43;;;;;;;9.20;8.60;;;17.80;33.20;;;;;;4979102;28;20771;-80
2023/09/30 07:23:09;;;;;;;10.77;8.87;;;17.80;32.90;;;;;;4977454;28;20422;-80
2023/09/30 07:25:35;;;;;;;8.43;7.73;;;18.00;32.60;;;;;;4978165;28;20465;-81
2023/09/30 07:28:01;;;;;;;9.03;8.50;;;18.00;32.30;;;;;;4997862;28;20293;-80
2023/09/30 07:30:27;;;;;;;10.50;9.70;;;18.00;32.00;;;;;;4984984;28;20559;-80
2023/09/30 07:32:53;;;;;;;9.27;8.70;;;18.10;31.50;;;;;;5004253;28;20448;-79
2023/09/30 07:35:18;;;;;;;9.60;8.97;;;18.20;30.90;;;;;;4997458;28;20193;-79
2023/09/30 07:37:44;;;;;;;9.17;8.33;;;18.20;30.70;;;;;;4997471;28;20273;-80
2023/09/30 07:40:11;;;;;;;9.17;8.37;;;18.20;31.50;;;;;;4997115;28;20174;-80
2023/09/30 07:42:37;;;;;;;9.20;8.40;;;18.30;30.80;;;;;;4979962;28;20206;-81
2023/09/30 07:45:06;;;;;;;7.83;7.33;;;18.20;30.70;;;;;;5002063;28;20470;-80
2023/09/30 07:47:33;;;;;;;9.10;8.50;;;18.20;31.60;;;;;;4986145;28;20182;-80
2023/09/30 07:50:00;;;;;;;9.67;8.87;;;18.20;31.50;;;;;;4997748;28;20421;-79
2023/09/30 07:52:26;;;;;;;9.20;8.57;;;18.20;30.90;;;;;;5004501;28;20555;-80
2023/09/30 07:54:51;;;;;;;9.07;8.43;;;18.30;30.70;;;;;;4997294;28;20859;-80
2023/09/30 07:57:17;;;;;;;9.30;8.60;;;18.30;30.50;;;;;;4997793;28;20197;-80
2023/09/30 07:59:42;;;;;;;9.67;8.97;;;18.30;30.70;;;;;;4970628;28;20309;-79
2023/09/30 08:02:08;;;;;;;9.40;8.70;;;18.40;30.50;;;;;;5005058;28;20209;-79
2023/09/30 08:04:34;;;;;;;9.83;8.83;;;18.20;30.80;;;;;;5001233;28;20645;-79
2023/09/30 08:06:59;;;;;;;10.83;10.10;;;18.30;30.90;;;;;;4996997;28;20807;-79
2023/09/30 08:09:25;;;;;;;8.83;8.07;;;18.30;30.50;;;;;;4976111;28;20179;-79
2023/09/30 08:11:53;;;;;;;9.03;8.43;;;18.30;30.60;;;;;;4983073;28;20573;-79
2023/09/30 08:14:19;;;;;;;10.13;9.30;;;18.20;31.00;;;;;;4983028;28;20182;-79
2023/09/30 08:16:44;;;;;;;11.17;10.20;;;18.00;31.10;;;;;;5000981;28;20789;-80
2023/09/30 08:19:10;;;;;;;9.00;8.30;;;18.00;31.20;;;;;;4989218;28;20680;-82
2023/09/30 08:21:36;;;;;;;10.00;9.20;;;18.00;31.20;;;;;;5011877;28;20232;-79
2023/09/30 08:24:02;;;;;;;10.07;9.27;;;18.00;31.40;;;;;;5008674;28;20174;-81
2023/09/30 08:26:30;;;;;;;10.60;9.77;;;18.10;31.10;;;;;;5002675;28;20380;-81
2023/09/30 08:28:56;;;;;;;9.07;8.43;;;18.10;31.10;;;;;;5002074;28;20412;-81
2023/09/30 08:31:22;;;;;;;9.50;8.70;;;18.10;30.80;;;;;;5003111;28;20432;-80
2023/09/30 08:33:48;;;;;;;10.60;9.90;;;18.10;30.80;;;;;;4981966;28;20202;-81
2023/09/30 08:36:13;;;;;;;9.47;8.77;;;18.10;30.60;;;;;;4991467;28;20280;-78
2023/09/30 08:38:40;;;;;;;9.10;8.40;;;18.10;30.30;;;;;;4992745;28;20183;-79
2023/09/30 08:41:07;;;;;;;9.57;8.87;;;18.20;30.50;;;;;;4991126;28;20209;-78
2023/09/30 08:43:38;;;;;;;9.70;8.90;;;18.20;30.00;;;;;;4990294;28;20427;-79
2023/09/30 08:46:04;;;;;;;9.50;8.60;;;18.00;30.10;;;;;;5001394;28;20819;-76
2023/09/30 08:48:35;;;;;;;10.03;9.43;;;18.00;30.30;;;;;;5005769;28;20416;-80
2023/09/30 08:51:02;;;;;;;9.23;8.50;;;18.10;30.30;;;;;;5002509;28;20447;-78
2023/09/30 08:53:29;;;;;;;10.30;9.30;;;18.20;29.80;;;;;;5003111;28;20417;-79
2023/09/30 08:56:04;;;;;;;9.90;9.00;;;18.20;29.40;;;;;;4979410;28;20420;-79
2023/09/30 08:58:33;;;;;;;10.37;9.63;;;18.20;29.30;;;;;;4983180;28;20764;-82
2023/09/30 09:01:00;;;;;;;10.37;9.57;;;18.30;28.80;;;;;;4986738;28;20986;-78
2023/09/30 09:03:31;;;;;;;8.60;7.87;;;18.40;28.90;;;;;;5007315;28;20858;-79
2023/09/30 09:05:57;;;;;;;15.17;13.80;;;18.60;29.10;;;;;;4981914;28;20469;-79
2023/09/30 09:08:26;;;;;;;9.83;9.00;;;18.80;27.70;;;;;;4975512;28;20426;-78
2023/09/30 09:10:57;;;;;;;10.60;9.90;;;19.00;27.70;;;;;;5006056;28;20217;-79
2023/09/30 09:13:24;;;;;;;10.30;9.60;;;19.10;26.50;;;;;;4987607;28;20433;-79
2023/09/30 09:16:06;;;;;;;10.67;9.77;;;19.20;25.80;;;;;;4983486;28;20432;-79
2023/09/30 09:18:33;;;;;;;10.60;9.90;;;19.20;26.00;;;;;;4987332;28;20461;-80
2023/09/30 09:21:14;;;;;;;11.30;10.37;;;19.20;25.50;;;;;;4984573;28;20472;-79
2023/09/30 09:23:42;;;;;;;10.60;9.90;;;19.20;25.00;;;;;;4990541;28;20790;-78
2023/09/30 09:26:08;;;;;;;10.10;9.40;;;19.20;25.30;;;;;;4989615;28;20470;-77
2023/09/30 09:28:36;;;;;;;10.70;9.80;;;19.30;24.70;;;;;;4982956;28;20431;-78
2023/09/30 09:31:02;;;;;;;9.00;8.40;;;19.30;24.60;;;;;;4982786;28;20476;-77
2023/09/30 09:33:43;;;;;;;10.30;9.70;;;19.30;24.90;;;;;;5010824;28;20421;-79
2023/09/30 09:36:09;;;;;;;10.07;9.20;;;19.30;25.00;;;;;;5017439;28;20788;-77
2023/09/30 09:38:45;;;;;;;11.80;10.90;;;19.30;25.20;;;;;;4991223;28;20432;-77
2023/09/30 09:41:10;;;;;;;9.43;8.90;;;19.30;24.70;;;;;;5016410;28;20216;-77
2023/09/30 09:43:37;;;;;;;11.07;10.27;;;19.30;24.80;;;;;;5017690;28;20443;-78
2023/09/30 09:46:07;;;;;;;9.53;8.67;;;19.50;24.50;;;;;;5012296;28;20209;-78
2023/09/30 09:48:35;;;;;;;9.73;8.87;;;19.60;24.10;;;;;;4993517;28;20438;-80
2023/09/30 09:51:01;;;;;;;11.37;10.47;;;19.60;24.40;;;;;;5008294;28;20495;-79
2023/09/30 09:53:30;;;;;;;10.10;9.27;;;19.60;24.10;;;;;;5001486;28;20421;-78
2023/09/30 09:55:59;;;;;;;9.10;8.40;;;19.70;24.20;;;;;;4983129;28;20436;-79
2023/09/30 09:58:26;;;;;;;9.93;8.93;;;19.70;23.90;;;;;;4994984;28;20535;-79
2023/09/30 10:00:52;;;;;;;10.00;9.30;;;19.80;23.60;;;;;;5002352;28;20463;-80
2023/09/30 10:03:18;;;;;;;10.83;10.10;;;19.90;23.50;;;;;;5005707;28;20839;-80
2023/09/30 10:05:45;;;;;;;10.37;9.57;;;20.10;23.30;;;;;;5009489;28;20542;-79
2023/09/30 10:08:17;;;;;;;11.03;10.17;;;20.10;22.90;;;;;;5010651;28;20184;-80
2023/09/30 10:10:45;;;;;;;10.47;9.57;;;20.10;23.20;;;;;;4994890;28;20463;-80
2023/09/30 10:13:49;;;;;;;9.53;8.93;;;20.20;23.30;;;;;;5004828;28;20889;-80
2023/09/30 10:16:37;;;;;;;10.00;9.20;;;20.10;23.20;;;;;;5012099;28;20415;-79
2023/09/30 10:19:12;;;;;;;9.17;8.60;;;20.10;23.20;;;;;;4990221;28;20952;-80
2023/09/30 10:21:39;;;;;;;9.53;8.63;;;20.10;23.30;;;;;;4989790;28;20996;-79
2023/09/30 10:24:23;;;;;;;9.67;8.90;;;20.00;23.40;;;;;;4981511;28;20511;-80
2023/09/30 10:27:31;;;;;;;8.77;8.17;;;19.90;23.30;;;;;;5001269;28;20421;-81
2023/09/30 10:30:09;;;;;;;8.33;7.83;;;19.90;23.40;;;;;;4995287;28;20992;-79
2023/09/30 10:32:50;;;;;;;9.80;9.00;;;19.90;22.80;;;;;;4992005;28;20459;-81
2023/09/30 10:35:21;;;;;;;8.87;8.03;;;19.90;23.20;;;;;;4974857;28;20497;-81
2023/09/30 10:37:48;;;;;;;9.17;8.53;;;19.90;23.00;;;;;;4998431;28;20416;-81
2023/09/30 10:40:31;;;;;;;8.60;8.10;;;19.90;22.90;;;;;;4997175;28;20428;-80
2023/09/30 10:43:31;;;;;;;8.50;7.80;;;19.90;22.70;;;;;;5000208;28;21043;-78
2023/09/30 10:45:58;;;;;;;8.67;8.07;;;19.90;22.80;;;;;;5006257;28;20473;-81
2023/09/30 10:48:34;;;;;;;11.87;10.90;;;20.00;22.60;;;;;;5004564;28;20466;-79
2023/09/30 10:51:14;;;;;;;9.33;8.73;;;19.90;22.30;;;;;;5002305;28;20437;-81
2023/09/30 10:53:52;;;;;;;9.90;9.10;;;19.90;21.70;;;;;;5001264;28;20492;-80
2023/09/30 10:56:40;;;;;;;10.63;9.83;;;19.80;21.60;;;;;;5000521;28;20562;-80
2023/09/30 10:59:06;;;;;;;11.03;10.10;;;19.80;22.20;;;;;;5004182;28;20421;-79
2023/09/30 11:01:36;;;;;;;10.33;9.10;;;19.80;22.30;;;;;;5005256;28;20456;-80
2023/09/30 11:04:04;;;;;;;9.70;9.00;;;19.80;21.80;;;;;;5007214;28;20186;-79
2023/09/30 11:06:31;;;;;;;8.97;8.27;;;19.90;22.10;;;;;;5002850;28;20492;-79
2023/09/30 11:09:00;;;;;;;9.17;8.37;;;19.90;22.00;;;;;;4998013;28;20422;-80
2023/09/30 11:11:43;;;;;;;10.37;9.40;;;19.90;21.60;;;;;;4999746;28;20587;-80
2023/09/30 11:14:21;;;;;;;11.03;9.73;;;19.90;22.50;;;;;;4999300;28;20496;-81
2023/09/30 11:16:49;;;;;;;9.47;8.80;;;19.90;21.70;;;;;;5003506;28;20417;-80
2023/09/30 11:19:20;;;;;;;9.67;8.80;;;19.90;21.60;;;;;;4980935;28;20417;-80
2023/09/30 11:21:47;;;;;;;9.10;8.50;;;19.90;21.20;;;;;;4996240;28;20452;-80
2023/09/30 11:24:14;;;;;;;9.90;9.10;;;19.90;21.60;;;;;;4996508;28;20425;-80
2023/09/30 11:26:43;;;;;;;12.20;10.93;;;20.00;21.00;;;;;;4996025;28;20904;-80
2023/09/30 11:29:11;;;;;;;10.90;9.80;;;20.00;20.70;;;;;;4997857;28;20420;-77
2023/09/30 11:31:44;;;;;;;9.83;9.13;;;20.00;22.00;;;;;;4995337;28;20444;-79
2023/09/30 11:34:11;;;;;;;9.70;8.97;;;20.10;21.80;;;;;;4979515;28;20479;-80
2023/09/30 11:36:48;;;;;;;9.80;9.07;;;20.20;20.30;;;;;;4996155;28;20515;-79
2023/09/30 11:39:26;;;;;;;9.43;8.73;;;20.20;20.20;;;;;;4997127;28;20491;-79
2023/09/30 11:41:52;;;;;;;9.60;8.70;;;20.30;19.50;;;;;;4995582;28;20459;-80
2023/09/30 11:44:18;;;;;;;9.73;8.87;;;20.40;19.40;;;;;;4999950;28;20444;-79
2023/09/30 11:47:00;;;;;;;10.23;9.43;;;20.40;19.60;;;;;;5000862;28;20464;-82
2023/09/30 11:49:29;;;;;;;9.80;9.00;;;20.40;19.80;;;;;;4997515;28;20409;-81
2023/09/30 11:51:56;;;;;;;10.70;9.77;;;20.40;19.20;;;;;;4998450;28;20444;-81
2023/09/30 11:54:23;;;;;;;9.40;8.63;;;20.50;19.40;;;;;;4998878;28;20421;-81
2023/09/30 11:56:50;;;;;;;10.70;9.60;;;20.50;18.70;;;;;;4998728;28;20448;-81
2023/09/30 11:59:16;;;;;;;9.57;8.87;;;20.40;19.00;;;;;;5000259;28;20423;-81
2023/09/30 12:01:43;;;;;;;9.90;9.10;;;20.50;18.60;;;;;;4998398;28;20456;-81
2023/09/30 12:04:09;;;;;;;10.90;9.97;;;20.50;18.40;;;;;;4999633;28;20417;-81
2023/09/30 12:06:38;;;;;;;11.10;10.13;;;20.60;18.10;;;;;;4999025;28;20470;-81
2023/09/30 12:09:05;;;;;;;10.70;9.97;;;20.70;17.90;;;;;;5000473;28;20260;-81
2023/09/30 12:11:31;;;;;;;10.53;9.83;;;20.70;17.50;;;;;;4999516;28;20453;-81
2023/09/30 12:13:56;;;;;;;10.13;9.40;;;20.70;17.60;;;;;;4998956;28;20424;-81
2023/09/30 12:16:23;;;;;;;9.90;9.17;;;20.70;17.60;;;;;;4998746;28;20178;-81
2023/09/30 12:18:48;;;;;;;10.00;9.27;;;20.60;17.40;;;;;;4999833;28;20177;-81
2023/09/30 12:21:14;;;;;;;34.30;31.30;;;20.60;17.10;;;;;;4999772;28;20445;-81
2023/09/30 12:23:40;;;;;;;10.93;9.93;;;20.60;17.10;;;;;;5000232;28;20237;-81
2023/09/30 12:26:07;;;;;;;10.17;9.47;;;20.60;17.20;;;;;;5001857;28;20242;-81
2023/09/30 12:28:33;;;;;;;10.60;9.70;;;20.50;16.60;;;;;;5001751;28;20496;-81
2023/09/30 12:31:03;;;;;;;10.10;9.10;;;20.50;16.80;;;;;;5000384;28;20472;-79
2023/09/30 12:33:30;;;;;;;9.83;8.90;;;20.40;16.50;;;;;;5000919;28;20174;-80
2023/09/30 12:35:56;;;;;;;10.70;9.70;;;20.40;16.50;;;;;;5001850;28;20417;-81
2023/09/30 12:38:22;;;;;;;9.87;8.97;;;20.50;16.90;;;;;;5005485;28;20413;-81
2023/09/30 12:40:48;;;;;;;11.03;10.00;;;20.50;17.00;;;;;;4999727;28;20457;-80
2023/09/30 12:43:14;;;;;;;9.00;8.30;;;20.60;17.30;;;;;;5000624;28;20182;-81
2023/09/30 12:45:39;;;;;;;14.40;13.20;;;20.60;16.80;;;;;;5001155;28;20469;-81